Terminal Aerodrome Forecast
Issued by NWS

Home | Current Version | Previous Version | Text Only | Print | Product List | Glossary On
Versions: 1 2 3 4 5 6 7 8 9 10 11 12 13 14 15
000
FTUS45 KMSO 251740
TAFSMN
TAF
KSMN 251740Z 2518/2618 VRB04KT P6SM BKN050
     FM260600 00000KT 4SM BR VCFG SCT004 SCT050
      AMD LTD TO CLD VIS AND WIND=

USA.gov is the U.S. government's official web portal to all federal, state and local government web resources and services.